sensor_id;sensor_type;location;lat;lon;timestamp;P1;durP1;ratioP1;P2;durP2;ratioP2
27999;SDS011;15328;50.860;10.562;2023-02-28T00:00:31;8.85;;;5.30;;
27999;SDS011;15328;50.860;10.562;2023-02-28T00:05:32;7.68;;;4.93;;
27999;SDS011;15328;50.860;10.562;2023-02-28T00:10:32;6.50;;;4.00;;
27999;SDS011;15328;50.860;10.562;2023-02-28T00:15:33;6.75;;;4.38;;
27999;SDS011;15328;50.860;10.562;2023-02-28T00:20:34;6.25;;;4.35;;
27999;SDS011;15328;50.860;10.562;2023-02-28T00:25:34;7.90;;;4.78;;
27999;SDS011;15328;50.860;10.562;2023-02-28T00:30:34;10.13;;;5.45;;
27999;SDS011;15328;50.860;10.562;2023-02-28T00:35:35;8.90;;;4.80;;
27999;SDS011;15328;50.860;10.562;2023-02-28T00:40:35;10.37;;;5.80;;
27999;SDS011;15328;50.860;10.562;2023-02-28T00:45:35;8.80;;;5.97;;
27999;SDS011;15328;50.860;10.562;2023-02-28T00:50:35;8.20;;;5.93;;
27999;SDS011;15328;50.860;10.562;2023-02-28T00:55:36;8.40;;;5.70;;
27999;SDS011;15328;50.860;10.562;2023-02-28T01:00:36;8.20;;;5.43;;
27999;SDS011;15328;50.860;10.562;2023-02-28T01:05:36;9.93;;;6.13;;
27999;SDS011;15328;50.860;10.562;2023-02-28T01:10:37;10.75;;;5.70;;
27999;SDS011;15328;50.860;10.562;2023-02-28T01:15:38;9.88;;;6.07;;
27999;SDS011;15328;50.860;10.562;2023-02-28T01:20:43;9.25;;;5.88;;
27999;SDS011;15328;50.860;10.562;2023-02-28T01:25:44;10.55;;;6.22;;
27999;SDS011;15328;50.860;10.562;2023-02-28T01:30:47;9.43;;;6.35;;
27999;SDS011;15328;50.860;10.562;2023-02-28T01:35:49;9.35;;;6.18;;
27999;SDS011;15328;50.860;10.562;2023-02-28T01:40:49;10.70;;;6.20;;
27999;SDS011;15328;50.860;10.562;2023-02-28T01:45:51;11.50;;;6.68;;
27999;SDS011;15328;50.860;10.562;2023-02-28T01:50:52;9.30;;;5.88;;
27999;SDS011;15328;50.860;10.562;2023-02-28T01:55:54;9.73;;;6.72;;
27999;SDS011;15328;50.860;10.562;2023-02-28T02:00:56;11.90;;;6.18;;
27999;SDS011;15328;50.860;10.562;2023-02-28T02:05:57;10.38;;;6.45;;
27999;SDS011;15328;50.860;10.562;2023-02-28T02:11:00;12.73;;;6.60;;
27999;SDS011;15328;50.860;10.562;2023-02-28T02:22:00;9.93;;;6.25;;
27999;SDS011;15328;50.860;10.562;2023-02-28T02:43:36;10.95;;;6.47;;
27999;SDS011;15328;50.860;10.562;2023-02-28T02:48:42;9.75;;;6.47;;
27999;SDS011;15328;50.860;10.562;2023-02-28T02:53:52;11.93;;;6.50;;
27999;SDS011;15328;50.860;10.562;2023-02-28T02:59:08;8.77;;;5.88;;
27999;SDS011;15328;50.860;10.562;2023-02-28T03:04:14;11.38;;;6.53;;
27999;SDS011;15328;50.860;10.562;2023-02-28T03:09:19;8.68;;;5.72;;
27999;SDS011;15328;50.860;10.562;2023-02-28T03:35:43;9.45;;;6.10;;
27999;SDS011;15328;50.860;10.562;2023-02-28T03:40:51;11.32;;;5.88;;
27999;SDS011;15328;50.860;10.562;2023-02-28T03:46:03;8.55;;;5.15;;
27999;SDS011;15328;50.860;10.562;2023-02-28T03:51:08;8.75;;;6.05;;
27999;SDS011;15328;50.860;10.562;2023-02-28T03:56:20;8.00;;;5.35;;
27999;SDS011;15328;50.860;10.562;2023-02-28T04:01:26;8.70;;;5.70;;
27999;SDS011;15328;50.860;10.562;2023-02-28T04:06:33;9.85;;;5.85;;
27999;SDS011;15328;50.860;10.562;2023-02-28T04:11:41;9.40;;;6.00;;
27999;SDS011;15328;50.860;10.562;2023-02-28T04:16:44;10.18;;;6.13;;
27999;SDS011;15328;50.860;10.562;2023-02-28T04:21:46;10.10;;;5.88;;
27999;SDS011;15328;50.860;10.562;2023-02-28T04:26:49;8.63;;;5.53;;
27999;SDS011;15328;50.860;10.562;2023-02-28T04:31:52;8.43;;;5.85;;
27999;SDS011;15328;50.860;10.562;2023-02-28T04:36:57;9.45;;;5.70;;
27999;SDS011;15328;50.860;10.562;2023-02-28T04:42:00;11.95;;;6.30;;
27999;SDS011;15328;50.860;10.562;2023-02-28T04:47:00;8.77;;;5.53;;
27999;SDS011;15328;50.860;10.562;2023-02-28T04:52:00;10.35;;;5.60;;
27999;SDS011;15328;50.860;10.562;2023-02-28T04:57:01;10.83;;;6.10;;
27999;SDS011;15328;50.860;10.562;2023-02-28T05:02:01;7.63;;;4.40;;
27999;SDS011;15328;50.860;10.562;2023-02-28T05:07:06;9.07;;;5.55;;
27999;SDS011;15328;50.860;10.562;2023-02-28T05:12:07;7.47;;;4.68;;
27999;SDS011;15328;50.860;10.562;2023-02-28T05:17:09;11.48;;;5.43;;
27999;SDS011;15328;50.860;10.562;2023-02-28T05:22:13;8.60;;;5.22;;
27999;SDS011;15328;50.860;10.562;2023-02-28T05:27:16;7.75;;;5.13;;
27999;SDS011;15328;50.860;10.562;2023-02-28T05:32:17;7.95;;;4.72;;
27999;SDS011;15328;50.860;10.562;2023-02-28T05:37:17;20.50;;;9.77;;
27999;SDS011;15328;50.860;10.562;2023-02-28T05:42:17;18.20;;;8.02;;
27999;SDS011;15328;50.860;10.562;2023-02-28T05:47:18;16.27;;;7.25;;
27999;SDS011;15328;50.860;10.562;2023-02-28T05:52:18;11.50;;;7.03;;
27999;SDS011;15328;50.860;10.562;2023-02-28T05:57:18;8.57;;;5.07;;
27999;SDS011;15328;50.860;10.562;2023-02-28T06:02:19;10.43;;;5.60;;
27999;SDS011;15328;50.860;10.562;2023-02-28T06:07:19;8.40;;;5.15;;
27999;SDS011;15328;50.860;10.562;2023-02-28T06:12:19;11.20;;;5.45;;
27999;SDS011;15328;50.860;10.562;2023-02-28T06:17:20;9.65;;;5.65;;
27999;SDS011;15328;50.860;10.562;2023-02-28T06:22:20;10.25;;;5.95;;
27999;SDS011;15328;50.860;10.562;2023-02-28T06:27:21;8.33;;;5.27;;
27999;SDS011;15328;50.860;10.562;2023-02-28T06:32:22;10.55;;;5.78;;
27999;SDS011;15328;50.860;10.562;2023-02-28T06:37:22;14.07;;;7.10;;
27999;SDS011;15328;50.860;10.562;2023-02-28T06:42:26;12.73;;;6.43;;
27999;SDS011;15328;50.860;10.562;2023-02-28T06:47:30;8.27;;;5.55;;
27999;SDS011;15328;50.860;10.562;2023-02-28T06:52:31;11.65;;;7.22;;
27999;SDS011;15328;50.860;10.562;2023-02-28T06:57:32;10.15;;;5.78;;
27999;SDS011;15328;50.860;10.562;2023-02-28T07:02:34;7.97;;;4.78;;
27999;SDS011;15328;50.860;10.562;2023-02-28T07:07:36;8.77;;;5.28;;
27999;SDS011;15328;50.860;10.562;2023-02-28T07:12:38;8.63;;;4.95;;
27999;SDS011;15328;50.860;10.562;2023-02-28T07:17:39;7.70;;;4.50;;
27999;SDS011;15328;50.860;10.562;2023-02-28T07:22:39;9.40;;;4.65;;
27999;SDS011;15328;50.860;10.562;2023-02-28T07:27:39;11.13;;;5.50;;
27999;SDS011;15328;50.860;10.562;2023-02-28T07:32:40;10.52;;;5.35;;
27999;SDS011;15328;50.860;10.562;2023-02-28T07:37:41;9.23;;;4.88;;
27999;SDS011;15328;50.860;10.562;2023-02-28T07:42:41;10.25;;;5.13;;
27999;SDS011;15328;50.860;10.562;2023-02-28T07:47:42;9.53;;;4.90;;
27999;SDS011;15328;50.860;10.562;2023-02-28T07:52:42;9.13;;;4.90;;
27999;SDS011;15328;50.860;10.562;2023-02-28T07:57:43;7.60;;;4.55;;
27999;SDS011;15328;50.860;10.562;2023-02-28T08:02:43;9.10;;;4.47;;
27999;SDS011;15328;50.860;10.562;2023-02-28T08:07:44;8.23;;;4.43;;
27999;SDS011;15328;50.860;10.562;2023-02-28T08:12:44;8.13;;;4.90;;
27999;SDS011;15328;50.860;10.562;2023-02-28T08:17:44;8.77;;;4.80;;
27999;SDS011;15328;50.860;10.562;2023-02-28T08:22:45;7.53;;;4.43;;
27999;SDS011;15328;50.860;10.562;2023-02-28T08:27:45;8.90;;;4.67;;
27999;SDS011;15328;50.860;10.562;2023-02-28T08:32:45;9.07;;;5.10;;
27999;SDS011;15328;50.860;10.562;2023-02-28T08:37:49;9.00;;;5.07;;
27999;SDS011;15328;50.860;10.562;2023-02-28T08:42:49;8.38;;;4.88;;
27999;SDS011;15328;50.860;10.562;2023-02-28T08:47:50;8.40;;;4.88;;
27999;SDS011;15328;50.860;10.562;2023-02-28T08:52:52;9.55;;;4.88;;
27999;SDS011;15328;50.860;10.562;2023-02-28T08:57:52;7.47;;;4.53;;
27999;SDS011;15328;50.860;10.562;2023-02-28T09:02:53;8.07;;;4.40;;
27999;SDS011;15328;50.860;10.562;2023-02-28T09:07:54;8.15;;;4.70;;
27999;SDS011;15328;50.860;10.562;2023-02-28T09:12:54;6.97;;;4.15;;
27999;SDS011;15328;50.860;10.562;2023-02-28T09:17:55;7.53;;;4.53;;
27999;SDS011;15328;50.860;10.562;2023-02-28T09:22:55;7.68;;;4.50;;
27999;SDS011;15328;50.860;10.562;2023-02-28T09:27:55;8.00;;;4.50;;
27999;SDS011;15328;50.860;10.562;2023-02-28T09:32:56;7.35;;;4.28;;
27999;SDS011;15328;50.860;10.562;2023-02-28T09:37:56;8.40;;;4.50;;
27999;SDS011;15328;50.860;10.562;2023-02-28T09:42:58;7.90;;;4.47;;
27999;SDS011;15328;50.860;10.562;2023-02-28T09:48:01;8.75;;;5.13;;
27999;SDS011;15328;50.860;10.562;2023-02-28T09:53:15;9.13;;;5.07;;
27999;SDS011;15328;50.860;10.562;2023-02-28T10:03:40;7.03;;;4.07;;
27999;SDS011;15328;50.860;10.562;2023-02-28T10:24:49;6.72;;;3.97;;
27999;SDS011;15328;50.860;10.562;2023-02-28T10:29:52;8.95;;;4.00;;
27999;SDS011;15328;50.860;10.562;2023-02-28T10:35:07;8.10;;;4.00;;
27999;SDS011;15328;50.860;10.562;2023-02-28T10:45:18;5.50;;;3.83;;
27999;SDS011;15328;50.860;10.562;2023-02-28T10:55:38;8.30;;;4.47;;
27999;SDS011;15328;50.860;10.562;2023-02-28T11:00:39;8.38;;;4.70;;
27999;SDS011;15328;50.860;10.562;2023-02-28T11:05:40;8.55;;;4.60;;
27999;SDS011;15328;50.860;10.562;2023-02-28T11:10:53;8.45;;;4.90;;
27999;SDS011;15328;50.860;10.562;2023-02-28T11:15:59;9.02;;;4.97;;
27999;SDS011;15328;50.860;10.562;2023-02-28T11:21:02;8.00;;;4.28;;
27999;SDS011;15328;50.860;10.562;2023-02-28T11:26:04;5.63;;;3.75;;
27999;SDS011;15328;50.860;10.562;2023-02-28T11:31:06;8.43;;;4.10;;
27999;SDS011;15328;50.860;10.562;2023-02-28T11:36:20;7.78;;;4.32;;
27999;SDS011;15328;50.860;10.562;2023-02-28T11:41:40;11.30;;;4.70;;
27999;SDS011;15328;50.860;10.562;2023-02-28T11:47:17;7.75;;;4.55;;
27999;SDS011;15328;50.860;10.562;2023-02-28T11:52:47;6.95;;;4.43;;
27999;SDS011;15328;50.860;10.562;2023-02-28T12:03:21;8.73;;;4.63;;
27999;SDS011;15328;50.860;10.562;2023-02-28T12:09:08;9.48;;;4.90;;
27999;SDS011;15328;50.860;10.562;2023-02-28T12:19:23;9.13;;;4.85;;
27999;SDS011;15328;50.860;10.562;2023-02-28T12:29:52;9.30;;;4.68;;
27999;SDS011;15328;50.860;10.562;2023-02-28T12:35:11;8.25;;;5.03;;
27999;SDS011;15328;50.860;10.562;2023-02-28T12:40:15;7.15;;;4.85;;
27999;SDS011;15328;50.860;10.562;2023-02-28T12:45:20;10.00;;;5.13;;
27999;SDS011;15328;50.860;10.562;2023-02-28T12:50:24;10.15;;;5.53;;
27999;SDS011;15328;50.860;10.562;2023-02-28T13:11:56;6.72;;;4.78;;
27999;SDS011;15328;50.860;10.562;2023-02-28T13:27:59;10.57;;;5.40;;
27999;SDS011;15328;50.860;10.562;2023-02-28T13:33:30;7.38;;;4.90;;
27999;SDS011;15328;50.860;10.562;2023-02-28T13:38:31;10.33;;;5.60;;
27999;SDS011;15328;50.860;10.562;2023-02-28T13:59:42;9.85;;;5.70;;
27999;SDS011;15328;50.860;10.562;2023-02-28T14:09:52;8.18;;;6.03;;
27999;SDS011;15328;50.860;10.562;2023-02-28T14:14:59;9.88;;;6.10;;
27999;SDS011;15328;50.860;10.562;2023-02-28T14:19:59;7.65;;;5.70;;
27999;SDS011;15328;50.860;10.562;2023-02-28T14:25:18;9.93;;;6.10;;
27999;SDS011;15328;50.860;10.562;2023-02-28T14:41:32;11.13;;;7.10;;
27999;SDS011;15328;50.860;10.562;2023-02-28T14:46:39;8.87;;;5.80;;
27999;SDS011;15328;50.860;10.562;2023-02-28T14:51:41;11.73;;;6.68;;
27999;SDS011;15328;50.860;10.562;2023-02-28T14:56:42;10.50;;;6.45;;
27999;SDS011;15328;50.860;10.562;2023-02-28T15:01:43;12.18;;;7.32;;
27999;SDS011;15328;50.860;10.562;2023-02-28T15:06:44;10.03;;;6.60;;
27999;SDS011;15328;50.860;10.562;2023-02-28T15:11:48;12.00;;;7.72;;
27999;SDS011;15328;50.860;10.562;2023-02-28T15:16:55;12.25;;;7.82;;
27999;SDS011;15328;50.860;10.562;2023-02-28T15:22:02;13.93;;;7.85;;
27999;SDS011;15328;50.860;10.562;2023-02-28T15:27:07;21.52;;;10.00;;
27999;SDS011;15328;50.860;10.562;2023-02-28T15:32:24;15.55;;;8.85;;
27999;SDS011;15328;50.860;10.562;2023-02-28T15:42:33;14.68;;;8.27;;
27999;SDS011;15328;50.860;10.562;2023-02-28T15:47:35;11.33;;;7.50;;
27999;SDS011;15328;50.860;10.562;2023-02-28T15:57:36;12.75;;;7.70;;
27999;SDS011;15328;50.860;10.562;2023-02-28T16:02:39;11.95;;;7.97;;
27999;SDS011;15328;50.860;10.562;2023-02-28T16:07:41;13.57;;;8.18;;
27999;SDS011;15328;50.860;10.562;2023-02-28T16:12:43;14.98;;;8.43;;
27999;SDS011;15328;50.860;10.562;2023-02-28T16:17:43;20.20;;;9.85;;
27999;SDS011;15328;50.860;10.562;2023-02-28T16:22:45;21.88;;;13.38;;
27999;SDS011;15328;50.860;10.562;2023-02-28T16:27:47;19.85;;;11.40;;
27999;SDS011;15328;50.860;10.562;2023-02-28T16:32:49;16.58;;;9.55;;
27999;SDS011;15328;50.860;10.562;2023-02-28T16:37:51;14.75;;;9.23;;
27999;SDS011;15328;50.860;10.562;2023-02-28T16:42:53;15.40;;;8.45;;
27999;SDS011;15328;50.860;10.562;2023-02-28T16:47:58;14.52;;;8.25;;
27999;SDS011;15328;50.860;10.562;2023-02-28T16:52:59;10.75;;;7.60;;
27999;SDS011;15328;50.860;10.562;2023-02-28T16:58:00;15.60;;;8.38;;
27999;SDS011;15328;50.860;10.562;2023-02-28T17:03:01;13.48;;;8.27;;
27999;SDS011;15328;50.860;10.562;2023-02-28T17:08:02;14.80;;;8.77;;
27999;SDS011;15328;50.860;10.562;2023-02-28T17:13:03;19.67;;;9.80;;
27999;SDS011;15328;50.860;10.562;2023-02-28T17:18:03;14.27;;;8.18;;
27999;SDS011;15328;50.860;10.562;2023-02-28T17:23:04;17.42;;;11.35;;
27999;SDS011;15328;50.860;10.562;2023-02-28T17:28:05;25.02;;;15.90;;
27999;SDS011;15328;50.860;10.562;2023-02-28T17:33:05;16.05;;;10.13;;
27999;SDS011;15328;50.860;10.562;2023-02-28T17:38:09;19.87;;;11.83;;
27999;SDS011;15328;50.860;10.562;2023-02-28T17:43:15;23.60;;;14.13;;
27999;SDS011;15328;50.860;10.562;2023-02-28T17:48:16;24.60;;;13.25;;
27999;SDS011;15328;50.860;10.562;2023-02-28T17:53:16;23.27;;;12.95;;
27999;SDS011;15328;50.860;10.562;2023-02-28T17:58:17;24.02;;;13.23;;
27999;SDS011;15328;50.860;10.562;2023-02-28T18:03:18;24.58;;;13.95;;
27999;SDS011;15328;50.860;10.562;2023-02-28T18:08:19;24.77;;;13.23;;
27999;SDS011;15328;50.860;10.562;2023-02-28T18:13:20;19.08;;;11.38;;
27999;SDS011;15328;50.860;10.562;2023-02-28T18:18:20;20.20;;;12.23;;
27999;SDS011;15328;50.860;10.562;2023-02-28T18:23:20;19.83;;;11.67;;
27999;SDS011;15328;50.860;10.562;2023-02-28T18:28:21;26.17;;;13.90;;
27999;SDS011;15328;50.860;10.562;2023-02-28T18:33:21;23.98;;;14.02;;
27999;SDS011;15328;50.860;10.562;2023-02-28T18:38:22;32.92;;;17.50;;
27999;SDS011;15328;50.860;10.562;2023-02-28T18:43:22;33.60;;;19.40;;
27999;SDS011;15328;50.860;10.562;2023-02-28T18:48:23;39.33;;;20.00;;
27999;SDS011;15328;50.860;10.562;2023-02-28T18:53:23;26.88;;;16.52;;
27999;SDS011;15328;50.860;10.562;2023-02-28T18:58:24;27.30;;;14.75;;
27999;SDS011;15328;50.860;10.562;2023-02-28T19:03:24;30.23;;;18.40;;
27999;SDS011;15328;50.860;10.562;2023-02-28T19:08:25;29.58;;;16.83;;
27999;SDS011;15328;50.860;10.562;2023-02-28T19:13:26;31.10;;;16.75;;
27999;SDS011;15328;50.860;10.562;2023-02-28T19:18:26;35.37;;;17.47;;
27999;SDS011;15328;50.860;10.562;2023-02-28T19:23:27;34.70;;;17.08;;
27999;SDS011;15328;50.860;10.562;2023-02-28T19:28:30;26.67;;;15.50;;
27999;SDS011;15328;50.860;10.562;2023-02-28T19:33:30;35.35;;;17.05;;
27999;SDS011;15328;50.860;10.562;2023-02-28T19:38:31;70.93;;;30.30;;
27999;SDS011;15328;50.860;10.562;2023-02-28T19:43:31;143.85;;;51.13;;
27999;SDS011;15328;50.860;10.562;2023-02-28T19:48:35;88.00;;;36.22;;
27999;SDS011;15328;50.860;10.562;2023-02-28T19:53:37;98.50;;;40.80;;
27999;SDS011;15328;50.860;10.562;2023-02-28T19:58:38;68.32;;;30.15;;
27999;SDS011;15328;50.860;10.562;2023-02-28T20:03:39;49.45;;;22.48;;
27999;SDS011;15328;50.860;10.562;2023-02-28T20:08:40;33.58;;;16.95;;
27999;SDS011;15328;50.860;10.562;2023-02-28T20:13:41;36.65;;;17.13;;
27999;SDS011;15328;50.860;10.562;2023-02-28T20:18:43;122.40;;;54.75;;
27999;SDS011;15328;50.860;10.562;2023-02-28T20:23:45;88.22;;;41.67;;
27999;SDS011;15328;50.860;10.562;2023-02-28T20:28:47;70.03;;;34.38;;
27999;SDS011;15328;50.860;10.562;2023-02-28T20:33:48;55.75;;;27.60;;
27999;SDS011;15328;50.860;10.562;2023-02-28T20:38:50;42.30;;;21.27;;
27999;SDS011;15328;50.860;10.562;2023-02-28T20:43:52;33.80;;;16.70;;
27999;SDS011;15328;50.860;10.562;2023-02-28T20:49:01;24.98;;;13.63;;
27999;SDS011;15328;50.860;10.562;2023-02-28T20:54:01;18.50;;;10.32;;
27999;SDS011;15328;50.860;10.562;2023-02-28T20:59:01;20.30;;;11.13;;
27999;SDS011;15328;50.860;10.562;2023-02-28T21:04:03;19.13;;;11.63;;
27999;SDS011;15328;50.860;10.562;2023-02-28T21:09:08;22.67;;;11.45;;
27999;SDS011;15328;50.860;10.562;2023-02-28T21:14:13;20.73;;;11.23;;
27999;SDS011;15328;50.860;10.562;2023-02-28T21:19:14;18.90;;;11.13;;
27999;SDS011;15328;50.860;10.562;2023-02-28T21:24:16;20.10;;;12.05;;
27999;SDS011;15328;50.860;10.562;2023-02-28T21:29:18;19.58;;;11.50;;
27999;SDS011;15328;50.860;10.562;2023-02-28T21:34:18;22.00;;;11.87;;
27999;SDS011;15328;50.860;10.562;2023-02-28T21:39:20;22.13;;;11.95;;
27999;SDS011;15328;50.860;10.562;2023-02-28T21:44:24;20.23;;;10.88;;
27999;SDS011;15328;50.860;10.562;2023-02-28T21:49:27;22.50;;;12.00;;
27999;SDS011;15328;50.860;10.562;2023-02-28T21:54:27;19.75;;;10.65;;
27999;SDS011;15328;50.860;10.562;2023-02-28T21:59:28;22.63;;;11.23;;
27999;SDS011;15328;50.860;10.562;2023-02-28T22:04:28;19.88;;;10.40;;
27999;SDS011;15328;50.860;10.562;2023-02-28T22:09:29;17.65;;;10.02;;
27999;SDS011;15328;50.860;10.562;2023-02-28T22:14:29;18.42;;;10.50;;
27999;SDS011;15328;50.860;10.562;2023-02-28T22:19:30;18.00;;;10.45;;
27999;SDS011;15328;50.860;10.562;2023-02-28T22:24:30;21.40;;;10.97;;
27999;SDS011;15328;50.860;10.562;2023-02-28T22:29:30;20.27;;;11.13;;
27999;SDS011;15328;50.860;10.562;2023-02-28T22:34:31;20.90;;;11.52;;
27999;SDS011;15328;50.860;10.562;2023-02-28T22:39:31;22.67;;;12.02;;
27999;SDS011;15328;50.860;10.562;2023-02-28T22:44:31;23.20;;;11.43;;
27999;SDS011;15328;50.860;10.562;2023-02-28T22:49:32;21.80;;;11.88;;
27999;SDS011;15328;50.860;10.562;2023-02-28T22:54:32;24.00;;;13.00;;
27999;SDS011;15328;50.860;10.562;2023-02-28T22:59:33;25.20;;;13.32;;
27999;SDS011;15328;50.860;10.562;2023-02-28T23:04:33;23.38;;;12.88;;
27999;SDS011;15328;50.860;10.562;2023-02-28T23:09:33;21.23;;;11.52;;
27999;SDS011;15328;50.860;10.562;2023-02-28T23:14:34;23.00;;;13.52;;
27999;SDS011;15328;50.860;10.562;2023-02-28T23:19:34;24.35;;;13.95;;
27999;SDS011;15328;50.860;10.562;2023-02-28T23:24:35;22.25;;;12.73;;
27999;SDS011;15328;50.860;10.562;2023-02-28T23:29:36;26.45;;;13.65;;
27999;SDS011;15328;50.860;10.562;2023-02-28T23:34:36;25.95;;;12.73;;
27999;SDS011;15328;50.860;10.562;2023-02-28T23:39:37;23.60;;;12.82;;
27999;SDS011;15328;50.860;10.562;2023-02-28T23:44:37;21.50;;;12.75;;
27999;SDS011;15328;50.860;10.562;2023-02-28T23:49:37;24.20;;;13.00;;
27999;SDS011;15328;50.860;10.562;2023-02-28T23:54:38;23.70;;;12.43;;
27999;SDS011;15328;50.860;10.562;2023-02-28T23:59:39;28.63;;;14.13;;
